sensor_id;sensor_type;location;lat;lon;timestamp;P1;durP1;ratioP1;P2;durP2;ratioP2
49948;SDS011;35840;45.982;8.890;2023-07-20T00:01:05;9.55;;;6.00;;
49948;SDS011;35840;45.982;8.890;2023-07-20T00:03:32;8.93;;;5.88;;
49948;SDS011;35840;45.982;8.890;2023-07-20T00:06:00;9.07;;;4.72;;
49948;SDS011;35840;45.982;8.890;2023-07-20T00:08:27;9.43;;;5.25;;
49948;SDS011;35840;45.982;8.890;2023-07-20T00:10:54;11.70;;;5.45;;
49948;SDS011;35840;45.982;8.890;2023-07-20T00:13:20;10.02;;;5.95;;
49948;SDS011;35840;45.982;8.890;2023-07-20T00:15:47;7.45;;;4.82;;
49948;SDS011;35840;45.982;8.890;2023-07-20T00:18:14;14.50;;;5.80;;
49948;SDS011;35840;45.982;8.890;2023-07-20T00:20:41;7.15;;;4.90;;
49948;SDS011;35840;45.982;8.890;2023-07-20T00:23:08;9.10;;;5.32;;
49948;SDS011;35840;45.982;8.890;2023-07-20T00:25:35;10.85;;;4.85;;
49948;SDS011;35840;45.982;8.890;2023-07-20T00:28:02;8.32;;;5.72;;
49948;SDS011;35840;45.982;8.890;2023-07-20T00:30:28;11.63;;;5.70;;
49948;SDS011;35840;45.982;8.890;2023-07-20T00:32:55;6.22;;;4.53;;
49948;SDS011;35840;45.982;8.890;2023-07-20T00:35:22;13.70;;;5.20;;
49948;SDS011;35840;45.982;8.890;2023-07-20T00:37:49;9.25;;;4.93;;
49948;SDS011;35840;45.982;8.890;2023-07-20T00:40:16;9.45;;;6.30;;
49948;SDS011;35840;45.982;8.890;2023-07-20T00:42:44;7.72;;;5.07;;
49948;SDS011;35840;45.982;8.890;2023-07-20T00:45:11;9.32;;;5.07;;
49948;SDS011;35840;45.982;8.890;2023-07-20T00:47:38;8.18;;;4.93;;
49948;SDS011;35840;45.982;8.890;2023-07-20T00:50:05;9.07;;;5.03;;
49948;SDS011;35840;45.982;8.890;2023-07-20T00:52:32;7.40;;;4.78;;
49948;SDS011;35840;45.982;8.890;2023-07-20T00:54:59;7.88;;;4.90;;
49948;SDS011;35840;45.982;8.890;2023-07-20T00:57:29;8.30;;;4.72;;
49948;SDS011;35840;45.982;8.890;2023-07-20T00:59:56;10.02;;;4.50;;
49948;SDS011;35840;45.982;8.890;2023-07-20T01:02:23;7.30;;;5.10;;
49948;SDS011;35840;45.982;8.890;2023-07-20T01:04:50;8.40;;;4.80;;
49948;SDS011;35840;45.982;8.890;2023-07-20T01:07:18;7.20;;;4.10;;
49948;SDS011;35840;45.982;8.890;2023-07-20T01:10:03;6.82;;;4.53;;
49948;SDS011;35840;45.982;8.890;2023-07-20T01:12:42;9.40;;;5.55;;
49948;SDS011;35840;45.982;8.890;2023-07-20T01:15:10;8.48;;;5.40;;
49948;SDS011;35840;45.982;8.890;2023-07-20T01:17:37;9.23;;;5.40;;
49948;SDS011;35840;45.982;8.890;2023-07-20T01:20:08;11.50;;;5.30;;
49948;SDS011;35840;45.982;8.890;2023-07-20T01:25:42;7.38;;;4.63;;
49948;SDS011;35840;45.982;8.890;2023-07-20T01:31:23;10.50;;;5.22;;
49948;SDS011;35840;45.982;8.890;2023-07-20T01:33:56;6.95;;;4.28;;
49948;SDS011;35840;45.982;8.890;2023-07-20T01:36:24;6.53;;;4.25;;
49948;SDS011;35840;45.982;8.890;2023-07-20T01:38:54;6.97;;;5.20;;
49948;SDS011;35840;45.982;8.890;2023-07-20T01:41:22;9.20;;;4.18;;
49948;SDS011;35840;45.982;8.890;2023-07-20T01:43:49;14.52;;;5.65;;
49948;SDS011;35840;45.982;8.890;2023-07-20T01:46:16;8.68;;;4.47;;
49948;SDS011;35840;45.982;8.890;2023-07-20T01:48:43;5.22;;;4.18;;
49948;SDS011;35840;45.982;8.890;2023-07-20T01:51:10;5.95;;;4.05;;
49948;SDS011;35840;45.982;8.890;2023-07-20T01:53:38;8.80;;;4.22;;
49948;SDS011;35840;45.982;8.890;2023-07-20T01:56:05;6.75;;;4.50;;
49948;SDS011;35840;45.982;8.890;2023-07-20T01:58:32;4.72;;;3.95;;
49948;SDS011;35840;45.982;8.890;2023-07-20T02:01:00;8.32;;;5.38;;
49948;SDS011;35840;45.982;8.890;2023-07-20T02:03:28;10.60;;;4.97;;
49948;SDS011;35840;45.982;8.890;2023-07-20T02:05:55;8.63;;;5.03;;
49948;SDS011;35840;45.982;8.890;2023-07-20T02:08:24;8.77;;;4.50;;
49948;SDS011;35840;45.982;8.890;2023-07-20T02:10:51;8.65;;;4.15;;
49948;SDS011;35840;45.982;8.890;2023-07-20T02:13:18;5.13;;;3.80;;
49948;SDS011;35840;45.982;8.890;2023-07-20T02:15:45;6.15;;;4.78;;
49948;SDS011;35840;45.982;8.890;2023-07-20T02:18:13;8.75;;;4.35;;
49948;SDS011;35840;45.982;8.890;2023-07-20T02:20:41;9.75;;;4.25;;
49948;SDS011;35840;45.982;8.890;2023-07-20T02:23:08;8.43;;;4.85;;
49948;SDS011;35840;45.982;8.890;2023-07-20T02:25:37;7.55;;;4.97;;
49948;SDS011;35840;45.982;8.890;2023-07-20T02:28:04;5.95;;;4.57;;
49948;SDS011;35840;45.982;8.890;2023-07-20T02:30:31;9.68;;;4.55;;
49948;SDS011;35840;45.982;8.890;2023-07-20T02:32:58;9.68;;;5.22;;
49948;SDS011;35840;45.982;8.890;2023-07-20T02:35:25;6.50;;;4.53;;
49948;SDS011;35840;45.982;8.890;2023-07-20T02:37:52;7.35;;;4.18;;
49948;SDS011;35840;45.982;8.890;2023-07-20T02:40:19;8.60;;;4.75;;
49948;SDS011;35840;45.982;8.890;2023-07-20T02:42:46;9.57;;;4.38;;
49948;SDS011;35840;45.982;8.890;2023-07-20T02:45:13;6.05;;;4.32;;
49948;SDS011;35840;45.982;8.890;2023-07-20T02:47:40;9.82;;;4.68;;
49948;SDS011;35840;45.982;8.890;2023-07-20T02:50:07;7.88;;;4.25;;
49948;SDS011;35840;45.982;8.890;2023-07-20T02:52:35;7.53;;;4.55;;
49948;SDS011;35840;45.982;8.890;2023-07-20T02:55:01;11.55;;;4.85;;
49948;SDS011;35840;45.982;8.890;2023-07-20T02:57:28;8.20;;;4.90;;
49948;SDS011;35840;45.982;8.890;2023-07-20T02:59:55;9.85;;;4.50;;
49948;SDS011;35840;45.982;8.890;2023-07-20T03:02:22;9.55;;;5.30;;
49948;SDS011;35840;45.982;8.890;2023-07-20T03:04:49;7.57;;;4.45;;
49948;SDS011;35840;45.982;8.890;2023-07-20T03:07:15;6.45;;;4.38;;
49948;SDS011;35840;45.982;8.890;2023-07-20T03:09:45;13.18;;;5.85;;
49948;SDS011;35840;45.982;8.890;2023-07-20T03:12:12;7.05;;;4.53;;
49948;SDS011;35840;45.982;8.890;2023-07-20T03:14:38;10.85;;;5.15;;
49948;SDS011;35840;45.982;8.890;2023-07-20T03:17:05;8.18;;;4.68;;
49948;SDS011;35840;45.982;8.890;2023-07-20T03:19:32;7.47;;;3.90;;
49948;SDS011;35840;45.982;8.890;2023-07-20T03:21:59;9.20;;;5.25;;
49948;SDS011;35840;45.982;8.890;2023-07-20T03:24:26;9.02;;;5.00;;
49948;SDS011;35840;45.982;8.890;2023-07-20T03:26:53;7.82;;;4.60;;
49948;SDS011;35840;45.982;8.890;2023-07-20T03:29:20;11.70;;;4.43;;
49948;SDS011;35840;45.982;8.890;2023-07-20T03:31:47;7.18;;;4.38;;
49948;SDS011;35840;45.982;8.890;2023-07-20T03:34:14;8.70;;;5.35;;
49948;SDS011;35840;45.982;8.890;2023-07-20T03:36:41;6.72;;;4.15;;
49948;SDS011;35840;45.982;8.890;2023-07-20T03:39:10;7.80;;;4.65;;
49948;SDS011;35840;45.982;8.890;2023-07-20T03:41:37;5.80;;;4.30;;
49948;SDS011;35840;45.982;8.890;2023-07-20T03:44:04;7.35;;;5.07;;
49948;SDS011;35840;45.982;8.890;2023-07-20T03:46:31;7.90;;;4.63;;
49948;SDS011;35840;45.982;8.890;2023-07-20T03:49:00;9.00;;;4.60;;
49948;SDS011;35840;45.982;8.890;2023-07-20T03:51:27;6.78;;;4.70;;
49948;SDS011;35840;45.982;8.890;2023-07-20T03:53:54;6.47;;;4.70;;
49948;SDS011;35840;45.982;8.890;2023-07-20T03:56:20;8.43;;;4.63;;
49948;SDS011;35840;45.982;8.890;2023-07-20T03:58:48;9.07;;;5.18;;
49948;SDS011;35840;45.982;8.890;2023-07-20T04:01:15;8.85;;;4.30;;
49948;SDS011;35840;45.982;8.890;2023-07-20T04:03:43;12.43;;;5.40;;
49948;SDS011;35840;45.982;8.890;2023-07-20T04:06:14;10.02;;;5.00;;
49948;SDS011;35840;45.982;8.890;2023-07-20T04:08:43;6.95;;;4.50;;
49948;SDS011;35840;45.982;8.890;2023-07-20T04:11:10;7.47;;;4.47;;
49948;SDS011;35840;45.982;8.890;2023-07-20T04:13:37;8.30;;;5.63;;
49948;SDS011;35840;45.982;8.890;2023-07-20T04:16:04;12.75;;;4.97;;
49948;SDS011;35840;45.982;8.890;2023-07-20T04:18:31;9.10;;;4.72;;
49948;SDS011;35840;45.982;8.890;2023-07-20T04:20:58;9.23;;;4.93;;
49948;SDS011;35840;45.982;8.890;2023-07-20T04:23:24;8.25;;;4.90;;
49948;SDS011;35840;45.982;8.890;2023-07-20T04:25:51;7.63;;;4.75;;
49948;SDS011;35840;45.982;8.890;2023-07-20T04:28:19;7.82;;;4.63;;
49948;SDS011;35840;45.982;8.890;2023-07-20T04:30:48;10.68;;;4.88;;
49948;SDS011;35840;45.982;8.890;2023-07-20T04:33:17;8.50;;;4.63;;
49948;SDS011;35840;45.982;8.890;2023-07-20T04:35:50;7.97;;;5.15;;
49948;SDS011;35840;45.982;8.890;2023-07-20T04:38:31;11.60;;;4.57;;
49948;SDS011;35840;45.982;8.890;2023-07-20T04:41:08;9.07;;;4.53;;
49948;SDS011;35840;45.982;8.890;2023-07-20T04:43:42;6.57;;;4.65;;
49948;SDS011;35840;45.982;8.890;2023-07-20T04:46:11;8.15;;;5.22;;
49948;SDS011;35840;45.982;8.890;2023-07-20T04:48:38;8.93;;;4.80;;
49948;SDS011;35840;45.982;8.890;2023-07-20T04:51:07;6.10;;;4.63;;
49948;SDS011;35840;45.982;8.890;2023-07-20T04:53:34;8.48;;;5.15;;
49948;SDS011;35840;45.982;8.890;2023-07-20T04:56:01;10.70;;;5.10;;
49948;SDS011;35840;45.982;8.890;2023-07-20T04:58:28;8.73;;;5.28;;
49948;SDS011;35840;45.982;8.890;2023-07-20T05:00:55;11.85;;;5.18;;
49948;SDS011;35840;45.982;8.890;2023-07-20T05:03:22;5.78;;;4.28;;
49948;SDS011;35840;45.982;8.890;2023-07-20T05:05:49;6.88;;;5.57;;
49948;SDS011;35840;45.982;8.890;2023-07-20T05:08:17;10.18;;;5.50;;
49948;SDS011;35840;45.982;8.890;2023-07-20T05:10:45;8.90;;;4.97;;
49948;SDS011;35840;45.982;8.890;2023-07-20T05:13:12;10.13;;;5.00;;
49948;SDS011;35840;45.982;8.890;2023-07-20T05:15:39;7.75;;;5.25;;
49948;SDS011;35840;45.982;8.890;2023-07-20T05:18:10;10.75;;;5.10;;
49948;SDS011;35840;45.982;8.890;2023-07-20T05:20:36;8.77;;;5.00;;
49948;SDS011;35840;45.982;8.890;2023-07-20T05:23:03;7.85;;;4.88;;
49948;SDS011;35840;45.982;8.890;2023-07-20T05:25:30;9.45;;;4.80;;
49948;SDS011;35840;45.982;8.890;2023-07-20T05:27:57;7.82;;;5.40;;
49948;SDS011;35840;45.982;8.890;2023-07-20T05:30:24;9.63;;;4.65;;
49948;SDS011;35840;45.982;8.890;2023-07-20T05:32:51;8.30;;;4.85;;
49948;SDS011;35840;45.982;8.890;2023-07-20T05:35:20;7.95;;;5.00;;
49948;SDS011;35840;45.982;8.890;2023-07-20T05:37:47;10.23;;;5.25;;
49948;SDS011;35840;45.982;8.890;2023-07-20T05:40:16;6.25;;;5.28;;
49948;SDS011;35840;45.982;8.890;2023-07-20T05:42:47;8.80;;;5.47;;
49948;SDS011;35840;45.982;8.890;2023-07-20T05:45:15;5.85;;;4.43;;
49948;SDS011;35840;45.982;8.890;2023-07-20T05:47:42;9.10;;;5.18;;
49948;SDS011;35840;45.982;8.890;2023-07-20T05:50:10;13.80;;;6.38;;
49948;SDS011;35840;45.982;8.890;2023-07-20T05:52:36;8.13;;;5.45;;
49948;SDS011;35840;45.982;8.890;2023-07-20T05:55:05;11.50;;;4.88;;
49948;SDS011;35840;45.982;8.890;2023-07-20T05:57:33;9.43;;;5.22;;
49948;SDS011;35840;45.982;8.890;2023-07-20T06:00:00;10.90;;;4.75;;
49948;SDS011;35840;45.982;8.890;2023-07-20T06:02:37;8.98;;;4.68;;
49948;SDS011;35840;45.982;8.890;2023-07-20T06:05:04;12.10;;;4.85;;
49948;SDS011;35840;45.982;8.890;2023-07-20T06:07:32;7.65;;;4.10;;
49948;SDS011;35840;45.982;8.890;2023-07-20T06:09:58;6.72;;;4.78;;
49948;SDS011;35840;45.982;8.890;2023-07-20T06:12:25;5.50;;;4.45;;
49948;SDS011;35840;45.982;8.890;2023-07-20T06:14:52;6.38;;;4.93;;
49948;SDS011;35840;45.982;8.890;2023-07-20T06:17:19;6.57;;;4.45;;
49948;SDS011;35840;45.982;8.890;2023-07-20T06:19:46;11.90;;;4.72;;
49948;SDS011;35840;45.982;8.890;2023-07-20T06:22:13;9.27;;;4.55;;
49948;SDS011;35840;45.982;8.890;2023-07-20T06:24:39;7.10;;;4.72;;
49948;SDS011;35840;45.982;8.890;2023-07-20T06:27:06;9.50;;;4.95;;
49948;SDS011;35840;45.982;8.890;2023-07-20T06:29:33;7.10;;;4.65;;
49948;SDS011;35840;45.982;8.890;2023-07-20T06:31:59;13.52;;;5.93;;
49948;SDS011;35840;45.982;8.890;2023-07-20T06:34:26;10.93;;;5.50;;
49948;SDS011;35840;45.982;8.890;2023-07-20T06:36:53;7.32;;;5.30;;
49948;SDS011;35840;45.982;8.890;2023-07-20T06:39:20;8.70;;;6.13;;
49948;SDS011;35840;45.982;8.890;2023-07-20T06:41:50;9.25;;;5.43;;
49948;SDS011;35840;45.982;8.890;2023-07-20T06:44:20;9.27;;;5.95;;
49948;SDS011;35840;45.982;8.890;2023-07-20T06:46:47;8.48;;;5.25;;
49948;SDS011;35840;45.982;8.890;2023-07-20T06:49:24;9.57;;;5.50;;
49948;SDS011;35840;45.982;8.890;2023-07-20T06:51:52;7.75;;;4.68;;
49948;SDS011;35840;45.982;8.890;2023-07-20T06:54:19;9.75;;;5.50;;
49948;SDS011;35840;45.982;8.890;2023-07-20T06:56:49;12.50;;;5.30;;
49948;SDS011;35840;45.982;8.890;2023-07-20T06:59:36;7.15;;;4.97;;
49948;SDS011;35840;45.982;8.890;2023-07-20T07:02:07;6.65;;;5.15;;
49948;SDS011;35840;45.982;8.890;2023-07-20T07:04:41;9.02;;;5.13;;
49948;SDS011;35840;45.982;8.890;2023-07-20T07:07:08;8.82;;;4.82;;
49948;SDS011;35840;45.982;8.890;2023-07-20T07:09:36;6.90;;;4.78;;
49948;SDS011;35840;45.982;8.890;2023-07-20T07:12:04;8.00;;;4.72;;
49948;SDS011;35840;45.982;8.890;2023-07-20T07:14:31;10.15;;;5.10;;
49948;SDS011;35840;45.982;8.890;2023-07-20T07:16:58;8.35;;;4.70;;
49948;SDS011;35840;45.982;8.890;2023-07-20T07:19:30;6.53;;;4.90;;
49948;SDS011;35840;45.982;8.890;2023-07-20T07:21:57;10.45;;;5.18;;
49948;SDS011;35840;45.982;8.890;2023-07-20T07:24:26;10.98;;;5.10;;
49948;SDS011;35840;45.982;8.890;2023-07-20T07:26:55;6.10;;;4.53;;
49948;SDS011;35840;45.982;8.890;2023-07-20T07:29:22;6.03;;;4.38;;
49948;SDS011;35840;45.982;8.890;2023-07-20T07:31:48;8.48;;;4.63;;
49948;SDS011;35840;45.982;8.890;2023-07-20T07:34:15;5.93;;;4.07;;
49948;SDS011;35840;45.982;8.890;2023-07-20T07:36:42;7.68;;;4.40;;
49948;SDS011;35840;45.982;8.890;2023-07-20T07:39:09;7.20;;;4.32;;
49948;SDS011;35840;45.982;8.890;2023-07-20T07:41:39;6.22;;;4.20;;
49948;SDS011;35840;45.982;8.890;2023-07-20T07:44:06;9.25;;;4.18;;
49948;SDS011;35840;45.982;8.890;2023-07-20T07:46:33;6.82;;;4.10;;
49948;SDS011;35840;45.982;8.890;2023-07-20T07:48:59;8.93;;;4.47;;
49948;SDS011;35840;45.982;8.890;2023-07-20T07:51:26;7.00;;;4.30;;
49948;SDS011;35840;45.982;8.890;2023-07-20T07:53:55;7.15;;;3.90;;
49948;SDS011;35840;45.982;8.890;2023-07-20T07:56:22;5.80;;;3.78;;
49948;SDS011;35840;45.982;8.890;2023-07-20T07:58:50;9.30;;;3.78;;
49948;SDS011;35840;45.982;8.890;2023-07-20T08:01:18;8.10;;;4.40;;
49948;SDS011;35840;45.982;8.890;2023-07-20T08:03:49;4.63;;;3.40;;
49948;SDS011;35840;45.982;8.890;2023-07-20T08:06:16;7.20;;;4.35;;
49948;SDS011;35840;45.982;8.890;2023-07-20T08:08:43;5.85;;;3.22;;
49948;SDS011;35840;45.982;8.890;2023-07-20T08:11:09;7.22;;;3.90;;
49948;SDS011;35840;45.982;8.890;2023-07-20T08:13:38;6.07;;;3.90;;
49948;SDS011;35840;45.982;8.890;2023-07-20T08:16:04;9.73;;;3.75;;
49948;SDS011;35840;45.982;8.890;2023-07-20T08:18:31;6.05;;;4.13;;
49948;SDS011;35840;45.982;8.890;2023-07-20T08:20:58;5.38;;;3.50;;
49948;SDS011;35840;45.982;8.890;2023-07-20T08:23:25;6.72;;;4.32;;
49948;SDS011;35840;45.982;8.890;2023-07-20T08:25:53;4.28;;;3.30;;
49948;SDS011;35840;45.982;8.890;2023-07-20T08:28:20;6.05;;;4.32;;
49948;SDS011;35840;45.982;8.890;2023-07-20T08:30:47;6.18;;;3.85;;
49948;SDS011;35840;45.982;8.890;2023-07-20T08:33:16;5.88;;;3.80;;
49948;SDS011;35840;45.982;8.890;2023-07-20T08:35:47;5.13;;;3.80;;
49948;SDS011;35840;45.982;8.890;2023-07-20T08:38:14;4.65;;;3.70;;
49948;SDS011;35840;45.982;8.890;2023-07-20T08:40:42;4.63;;;3.60;;
49948;SDS011;35840;45.982;8.890;2023-07-20T08:43:10;6.68;;;3.88;;
49948;SDS011;35840;45.982;8.890;2023-07-20T08:45:39;4.25;;;3.20;;
49948;SDS011;35840;45.982;8.890;2023-07-20T08:48:07;5.30;;;3.72;;
49948;SDS011;35840;45.982;8.890;2023-07-20T08:50:35;6.30;;;3.78;;
49948;SDS011;35840;45.982;8.890;2023-07-20T08:53:02;4.40;;;3.92;;
49948;SDS011;35840;45.982;8.890;2023-07-20T08:55:30;5.13;;;3.83;;
49948;SDS011;35840;45.982;8.890;2023-07-20T08:57:58;7.65;;;4.22;;
49948;SDS011;35840;45.982;8.890;2023-07-20T09:00:27;5.68;;;3.92;;
49948;SDS011;35840;45.982;8.890;2023-07-20T09:02:57;5.45;;;3.45;;
49948;SDS011;35840;45.982;8.890;2023-07-20T09:05:27;6.72;;;3.50;;
49948;SDS011;35840;45.982;8.890;2023-07-20T09:07:54;6.47;;;3.65;;
49948;SDS011;35840;45.982;8.890;2023-07-20T09:10:23;7.93;;;3.97;;
49948;SDS011;35840;45.982;8.890;2023-07-20T09:12:51;4.28;;;3.42;;
49948;SDS011;35840;45.982;8.890;2023-07-20T09:15:18;8.75;;;3.55;;
49948;SDS011;35840;45.982;8.890;2023-07-20T09:17:47;8.25;;;3.88;;
49948;SDS011;35840;45.982;8.890;2023-07-20T09:20:19;5.55;;;3.90;;
49948;SDS011;35840;45.982;8.890;2023-07-20T09:22:50;7.30;;;4.30;;
49948;SDS011;35840;45.982;8.890;2023-07-20T09:25:19;5.63;;;3.92;;
49948;SDS011;35840;45.982;8.890;2023-07-20T09:27:53;5.63;;;4.13;;
49948;SDS011;35840;45.982;8.890;2023-07-20T09:30:21;10.35;;;4.18;;
49948;SDS011;35840;45.982;8.890;2023-07-20T09:32:57;7.45;;;4.18;;
49948;SDS011;35840;45.982;8.890;2023-07-20T09:35:26;8.15;;;4.43;;
49948;SDS011;35840;45.982;8.890;2023-07-20T09:38:06;6.47;;;3.65;;
49948;SDS011;35840;45.982;8.890;2023-07-20T09:40:38;7.70;;;3.63;;
49948;SDS011;35840;45.982;8.890;2023-07-20T09:43:09;5.93;;;3.65;;
49948;SDS011;35840;45.982;8.890;2023-07-20T09:45:42;6.70;;;3.63;;
49948;SDS011;35840;45.982;8.890;2023-07-20T09:48:12;4.82;;;3.53;;
49948;SDS011;35840;45.982;8.890;2023-07-20T09:50:50;5.63;;;3.78;;
49948;SDS011;35840;45.982;8.890;2023-07-20T09:55:49;6.50;;;3.95;;
49948;SDS011;35840;45.982;8.890;2023-07-20T09:58:16;8.05;;;3.65;;
49948;SDS011;35840;45.982;8.890;2023-07-20T10:00:44;4.22;;;3.35;;
49948;SDS011;35840;45.982;8.890;2023-07-20T10:03:19;13.27;;;4.95;;
49948;SDS011;35840;45.982;8.890;2023-07-20T10:05:49;4.13;;;3.72;;
49948;SDS011;35840;45.982;8.890;2023-07-20T10:08:20;5.53;;;3.45;;
49948;SDS011;35840;45.982;8.890;2023-07-20T10:10:54;6.55;;;4.03;;
49948;SDS011;35840;45.982;8.890;2023-07-20T10:13:21;5.78;;;3.97;;
49948;SDS011;35840;45.982;8.890;2023-07-20T10:16:01;5.10;;;3.58;;
49948;SDS011;35840;45.982;8.890;2023-07-20T10:18:41;5.43;;;3.78;;
49948;SDS011;35840;45.982;8.890;2023-07-20T10:21:17;4.55;;;3.45;;
49948;SDS011;35840;45.982;8.890;2023-07-20T10:23:52;4.93;;;3.72;;
49948;SDS011;35840;45.982;8.890;2023-07-20T10:26:19;4.43;;;3.50;;
49948;SDS011;35840;45.982;8.890;2023-07-20T10:28:45;5.38;;;3.85;;
49948;SDS011;35840;45.982;8.890;2023-07-20T10:31:12;5.63;;;3.55;;
49948;SDS011;35840;45.982;8.890;2023-07-20T10:33:40;6.75;;;4.22;;
49948;SDS011;35840;45.982;8.890;2023-07-20T10:36:08;7.03;;;3.70;;
49948;SDS011;35840;45.982;8.890;2023-07-20T10:41:22;5.50;;;3.65;;
49948;SDS011;35840;45.982;8.890;2023-07-20T10:44:02;3.90;;;3.47;;
49948;SDS011;35840;45.982;8.890;2023-07-20T10:49:07;4.32;;;2.97;;
49948;SDS011;35840;45.982;8.890;2023-07-20T10:51:45;4.07;;;3.20;;
49948;SDS011;35840;45.982;8.890;2023-07-20T10:56:44;6.10;;;3.03;;
49948;SDS011;35840;45.982;8.890;2023-07-20T11:02:09;4.47;;;3.30;;
49948;SDS011;35840;45.982;8.890;2023-07-20T11:04:43;5.32;;;3.55;;
49948;SDS011;35840;45.982;8.890;2023-07-20T11:07:17;5.03;;;3.65;;
49948;SDS011;35840;45.982;8.890;2023-07-20T11:10:14;5.40;;;3.78;;
49948;SDS011;35840;45.982;8.890;2023-07-20T11:15:46;6.97;;;3.83;;
49948;SDS011;35840;45.982;8.890;2023-07-20T11:18:14;4.20;;;3.50;;
49948;SDS011;35840;45.982;8.890;2023-07-20T11:20:41;4.90;;;3.65;;
49948;SDS011;35840;45.982;8.890;2023-07-20T11:23:08;3.92;;;3.28;;
49948;SDS011;35840;45.982;8.890;2023-07-20T11:25:36;4.88;;;3.13;;
49948;SDS011;35840;45.982;8.890;2023-07-20T11:28:06;5.47;;;3.42;;
49948;SDS011;35840;45.982;8.890;2023-07-20T11:30:35;5.30;;;3.65;;
49948;SDS011;35840;45.982;8.890;2023-07-20T11:33:02;6.60;;;3.53;;
49948;SDS011;35840;45.982;8.890;2023-07-20T11:35:29;3.90;;;3.50;;
49948;SDS011;35840;45.982;8.890;2023-07-20T11:37:56;4.53;;;3.28;;
49948;SDS011;35840;45.982;8.890;2023-07-20T11:40:23;6.78;;;3.70;;
49948;SDS011;35840;45.982;8.890;2023-07-20T11:42:52;4.20;;;3.72;;
49948;SDS011;35840;45.982;8.890;2023-07-20T11:45:22;4.57;;;3.85;;
49948;SDS011;35840;45.982;8.890;2023-07-20T11:47:49;4.70;;;3.67;;
49948;SDS011;35840;45.982;8.890;2023-07-20T11:50:16;6.40;;;4.35;;
49948;SDS011;35840;45.982;8.890;2023-07-20T11:52:42;3.90;;;3.50;;
49948;SDS011;35840;45.982;8.890;2023-07-20T11:55:09;4.65;;;3.38;;
49948;SDS011;35840;45.982;8.890;2023-07-20T11:57:37;7.47;;;3.85;;
49948;SDS011;35840;45.982;8.890;2023-07-20T12:00:05;7.38;;;3.28;;
49948;SDS011;35840;45.982;8.890;2023-07-20T12:02:38;4.05;;;3.65;;
49948;SDS011;35840;45.982;8.890;2023-07-20T12:05:06;4.85;;;3.80;;
49948;SDS011;35840;45.982;8.890;2023-07-20T12:07:35;5.63;;;3.78;;
49948;SDS011;35840;45.982;8.890;2023-07-20T12:10:10;4.32;;;3.42;;
49948;SDS011;35840;45.982;8.890;2023-07-20T12:15:22;4.90;;;3.60;;
49948;SDS011;35840;45.982;8.890;2023-07-20T12:17:51;4.20;;;3.53;;
49948;SDS011;35840;45.982;8.890;2023-07-20T12:20:26;3.33;;;3.03;;
49948;SDS011;35840;45.982;8.890;2023-07-20T12:23:01;4.53;;;3.65;;
49948;SDS011;35840;45.982;8.890;2023-07-20T12:25:32;4.13;;;3.50;;
49948;SDS011;35840;45.982;8.890;2023-07-20T12:28:38;4.47;;;3.47;;
49948;SDS011;35840;45.982;8.890;2023-07-20T12:30:56;3.72;;;3.10;;
49948;SDS011;35840;45.982;8.890;2023-07-20T12:33:23;5.15;;;3.65;;
49948;SDS011;35840;45.982;8.890;2023-07-20T12:35:50;3.95;;;3.22;;
49948;SDS011;35840;45.982;8.890;2023-07-20T12:38:17;4.28;;;3.63;;
49948;SDS011;35840;45.982;8.890;2023-07-20T12:40:44;4.45;;;3.80;;
49948;SDS011;35840;45.982;8.890;2023-07-20T12:43:11;13.55;;;4.40;;
49948;SDS011;35840;45.982;8.890;2023-07-20T12:45:38;5.45;;;3.63;;
49948;SDS011;35840;45.982;8.890;2023-07-20T12:48:04;8.13;;;4.13;;
49948;SDS011;35840;45.982;8.890;2023-07-20T12:50:31;8.05;;;4.50;;
49948;SDS011;35840;45.982;8.890;2023-07-20T12:52:58;4.43;;;3.42;;
49948;SDS011;35840;45.982;8.890;2023-07-20T12:55:25;4.15;;;3.80;;
49948;SDS011;35840;45.982;8.890;2023-07-20T12:57:52;4.47;;;3.72;;
49948;SDS011;35840;45.982;8.890;2023-07-20T13:00:19;4.57;;;4.15;;
49948;SDS011;35840;45.982;8.890;2023-07-20T13:02:45;4.22;;;3.40;;
49948;SDS011;35840;45.982;8.890;2023-07-20T13:05:13;5.25;;;3.75;;
49948;SDS011;35840;45.982;8.890;2023-07-20T13:07:40;4.85;;;3.83;;
49948;SDS011;35840;45.982;8.890;2023-07-20T13:10:11;5.75;;;3.65;;
49948;SDS011;35840;45.982;8.890;2023-07-20T13:12:38;4.32;;;3.55;;
49948;SDS011;35840;45.982;8.890;2023-07-20T13:15:06;4.40;;;3.50;;
49948;SDS011;35840;45.982;8.890;2023-07-20T13:17:34;5.30;;;3.42;;
49948;SDS011;35840;45.982;8.890;2023-07-20T13:20:02;3.28;;;2.97;;
49948;SDS011;35840;45.982;8.890;2023-07-20T13:22:34;5.18;;;3.63;;
49948;SDS011;35840;45.982;8.890;2023-07-20T13:25:01;4.28;;;3.88;;
49948;SDS011;35840;45.982;8.890;2023-07-20T13:27:28;5.88;;;3.72;;
49948;SDS011;35840;45.982;8.890;2023-07-20T13:29:58;4.85;;;3.65;;
49948;SDS011;35840;45.982;8.890;2023-07-20T13:32:29;6.30;;;3.88;;
49948;SDS011;35840;45.982;8.890;2023-07-20T13:35:00;4.63;;;3.88;;
49948;SDS011;35840;45.982;8.890;2023-07-20T13:37:27;5.15;;;3.90;;
49948;SDS011;35840;45.982;8.890;2023-07-20T13:39:54;7.57;;;4.22;;
49948;SDS011;35840;45.982;8.890;2023-07-20T13:42:33;8.25;;;4.45;;
49948;SDS011;35840;45.982;8.890;2023-07-20T13:44:59;5.68;;;3.78;;
49948;SDS011;35840;45.982;8.890;2023-07-20T13:47:26;5.78;;;4.38;;
49948;SDS011;35840;45.982;8.890;2023-07-20T13:49:54;5.10;;;3.88;;
49948;SDS011;35840;45.982;8.890;2023-07-20T13:52:30;5.78;;;3.80;;
49948;SDS011;35840;45.982;8.890;2023-07-20T13:55:00;8.98;;;4.45;;
49948;SDS011;35840;45.982;8.890;2023-07-20T13:57:31;11.27;;;4.63;;
49948;SDS011;35840;45.982;8.890;2023-07-20T14:00:01;7.25;;;4.45;;
49948;SDS011;35840;45.982;8.890;2023-07-20T14:02:39;6.78;;;4.68;;
49948;SDS011;35840;45.982;8.890;2023-07-20T14:05:08;7.20;;;4.18;;
49948;SDS011;35840;45.982;8.890;2023-07-20T14:07:38;5.93;;;3.90;;
49948;SDS011;35840;45.982;8.890;2023-07-20T14:10:06;6.85;;;4.40;;
49948;SDS011;35840;45.982;8.890;2023-07-20T14:12:36;6.15;;;3.63;;
49948;SDS011;35840;45.982;8.890;2023-07-20T14:15:03;8.25;;;3.95;;
49948;SDS011;35840;45.982;8.890;2023-07-20T14:17:31;6.55;;;3.88;;
49948;SDS011;35840;45.982;8.890;2023-07-20T14:19:58;6.57;;;3.97;;
49948;SDS011;35840;45.982;8.890;2023-07-20T14:22:25;10.30;;;4.35;;
49948;SDS011;35840;45.982;8.890;2023-07-20T14:24:53;4.50;;;4.00;;
49948;SDS011;35840;45.982;8.890;2023-07-20T14:27:20;6.25;;;3.88;;
49948;SDS011;35840;45.982;8.890;2023-07-20T14:29:46;4.35;;;3.95;;
49948;SDS011;35840;45.982;8.890;2023-07-20T14:32:13;6.28;;;4.03;;
49948;SDS011;35840;45.982;8.890;2023-07-20T14:34:40;6.57;;;4.32;;
49948;SDS011;35840;45.982;8.890;2023-07-20T14:37:07;6.65;;;3.83;;
49948;SDS011;35840;45.982;8.890;2023-07-20T14:39:34;5.57;;;3.35;;
49948;SDS011;35840;45.982;8.890;2023-07-20T14:42:01;6.95;;;3.53;;
49948;SDS011;35840;45.982;8.890;2023-07-20T14:44:30;5.28;;;3.28;;
49948;SDS011;35840;45.982;8.890;2023-07-20T14:46:57;6.10;;;3.25;;
49948;SDS011;35840;45.982;8.890;2023-07-20T14:49:39;4.57;;;3.22;;
49948;SDS011;35840;45.982;8.890;2023-07-20T14:52:06;5.40;;;3.50;;
49948;SDS011;35840;45.982;8.890;2023-07-20T14:54:41;4.75;;;3.30;;
49948;SDS011;35840;45.982;8.890;2023-07-20T14:57:08;4.88;;;3.30;;
49948;SDS011;35840;45.982;8.890;2023-07-20T14:59:40;4.80;;;3.15;;
49948;SDS011;35840;45.982;8.890;2023-07-20T15:02:08;4.47;;;3.38;;
49948;SDS011;35840;45.982;8.890;2023-07-20T15:04:35;7.25;;;3.63;;
49948;SDS011;35840;45.982;8.890;2023-07-20T15:07:02;5.03;;;3.42;;
49948;SDS011;35840;45.982;8.890;2023-07-20T15:09:29;6.47;;;3.55;;
49948;SDS011;35840;45.982;8.890;2023-07-20T15:11:56;3.83;;;3.28;;
49948;SDS011;35840;45.982;8.890;2023-07-20T15:14:23;5.05;;;3.67;;
49948;SDS011;35840;45.982;8.890;2023-07-20T15:16:49;4.35;;;3.67;;
49948;SDS011;35840;45.982;8.890;2023-07-20T15:19:16;4.95;;;3.22;;